Terminal Aerodrome Forecast
Issued by NWS

Home | Current Version | Previous Version | Text Only | Print | Product List | Glossary On
Versions: 1 2 3 4 5 6 7 8 9 10 11 12 13 14 15 16
268
FTUS45 KRIW 222333
TAFCPR
TAF
KCPR 222333Z 2300/2324 29007KT P6SM SCT050 BKN110
     FM230200 06008KT P6SM SCT040 OVC060
     FM230500 06013KT P6SM VCSH OVC020
     FM230700 05013KT 2SM -SN OVC010
     FM231000 04018G30KT 1/2SM SN BLSN VV005=

USA.gov is the U.S. government's official web portal to all federal, state and local government web resources and services.